createdAt,value
2022-07-29T08:44:49.730Z,29.30
2022-07-29T08:46:52.712Z,29.30
2022-07-29T08:48:56.459Z,28.81
2022-07-29T08:50:59.034Z,29.05
2022-07-29T08:53:03.061Z,29.13
2022-07-29T08:55:07.213Z,29.02
2022-07-29T08:57:13.482Z,29.37
2022-07-29T08:59:19.895Z,29.54
2022-07-29T09:01:36.107Z,29.65
2022-07-29T09:03:47.143Z,29.60
2022-07-29T09:05:50.391Z,29.95
2022-07-29T09:07:53.281Z,29.95
2022-07-29T09:09:56.095Z,30.11
2022-07-29T09:12:00.587Z,30.09
2022-07-29T09:14:02.949Z,29.91
2022-07-29T09:16:09.175Z,29.98
2022-07-29T09:18:19.789Z,30.31
2022-07-29T09:20:56.383Z,30.15
2022-07-29T09:23:09.254Z,30.33
2022-07-29T09:25:13.436Z,30.53
2022-07-29T09:27:30.000Z,30.54
2022-07-29T09:29:36.133Z,30.72
2022-07-29T09:31:41.949Z,30.74
2022-07-29T09:33:44.323Z,30.64
2022-07-29T09:35:56.383Z,30.76
2022-07-29T09:38:11.639Z,30.97
2022-07-29T09:40:22.009Z,30.99
2022-07-29T09:42:31.063Z,30.87
2022-07-29T09:44:44.028Z,31.13
2022-07-29T09:47:08.291Z,30.93
2022-07-29T09:49:15.286Z,31.06
2022-07-29T09:51:26.950Z,31.19
2022-07-29T09:53:40.932Z,30.76
2022-07-29T09:56:02.306Z,31.07
2022-07-29T09:58:22.370Z,31.33
2022-07-29T10:00:26.468Z,31.72
2022-07-29T10:02:34.740Z,31.66
2022-07-29T10:04:43.728Z,31.66
2022-07-29T10:07:05.221Z,31.71
2022-07-29T10:09:10.302Z,31.96
2022-07-29T10:11:17.976Z,31.84
2022-07-29T10:13:20.658Z,32.06
2022-07-29T10:15:25.584Z,31.90
2022-07-29T10:17:27.978Z,32.01
2022-07-29T10:19:31.979Z,32.15
2022-07-29T10:21:36.618Z,32.37
2022-07-29T10:23:46.503Z,32.45
2022-07-29T10:25:50.466Z,32.70
2022-07-29T10:27:54.279Z,33.05
2022-07-29T10:29:56.581Z,32.95
2022-07-29T10:32:23.712Z,33.04
2022-07-29T10:34:46.319Z,33.09
2022-07-29T10:37:01.431Z,33.43
2022-07-29T10:39:15.476Z,33.62
2022-07-29T10:41:32.259Z,33.27
2022-07-29T10:43:48.306Z,33.52
2022-07-29T10:45:58.293Z,33.54
2022-07-29T10:48:08.023Z,33.65
2022-07-29T10:50:15.243Z,34.14
2022-07-29T10:52:20.858Z,34.13
2022-07-29T10:54:43.798Z,34.46
2022-07-29T10:56:46.729Z,34.51
2022-07-29T11:01:51.308Z,35.39
2022-07-29T11:03:57.611Z,35.16
2022-07-29T11:06:00.184Z,35.34
2022-07-29T11:08:19.983Z,35.14
2022-07-29T11:12:48.464Z,36.14
2022-07-29T11:14:57.164Z,35.92
2022-07-29T11:17:07.433Z,35.47
2022-07-29T11:19:13.167Z,35.11
2022-07-29T11:21:53.965Z,35.09
2022-07-29T11:24:18.547Z,35.14
2022-07-29T11:26:26.281Z,34.64
2022-07-29T11:28:30.825Z,34.80
2022-07-29T11:30:51.543Z,35.45
2022-07-29T11:32:54.252Z,36.95
2022-07-29T11:35:37.344Z,38.22
2022-07-29T11:37:42.464Z,39.29
2022-07-29T11:39:48.684Z,38.99
2022-07-29T11:41:51.212Z,37.72
2022-07-29T11:44:00.880Z,36.11
2022-07-29T11:46:04.556Z,36.03
2022-07-29T11:50:44.291Z,36.49
2022-07-29T11:52:50.011Z,35.99
2022-07-29T11:57:17.787Z,34.82
2022-07-29T11:59:21.192Z,34.73
2022-07-29T12:01:25.596Z,34.47
2022-07-29T12:03:34.778Z,34.50
2022-07-29T12:05:48.178Z,34.57
2022-07-29T12:07:03.797Z,37.63
2022-07-29T12:07:51.003Z,34.69
2022-07-29T12:09:56.902Z,34.09
2022-07-29T12:12:04.926Z,34.00
2022-07-29T12:14:08.031Z,33.78
2022-07-29T12:16:10.891Z,34.17
2022-07-29T12:18:24.090Z,35.97
2022-07-29T12:20:29.244Z,39.64
2022-07-29T12:22:38.341Z,41.58
2022-07-29T12:24:45.764Z,42.49
2022-07-29T12:26:57.257Z,42.90
2022-07-29T12:28:59.914Z,42.82
2022-07-29T12:31:06.206Z,43.11
2022-07-29T12:33:24.501Z,43.24
2022-07-29T12:35:27.323Z,45.34
2022-07-29T12:37:40.758Z,45.35
2022-07-29T12:39:45.061Z,45.17
2022-07-29T12:41:47.733Z,47.19
2022-07-29T12:43:54.951Z,45.69
2022-07-29T12:45:58.519Z,45.02
2022-07-29T12:48:01.118Z,44.27
2022-07-29T12:50:22.070Z,44.73
2022-07-29T12:52:32.070Z,46.37
2022-07-29T12:54:34.863Z,45.66
2022-07-29T12:56:43.294Z,46.05
2022-07-29T12:58:50.966Z,43.24
2022-07-29T13:01:18.078Z,43.44
2022-07-29T13:03:20.462Z,40.74
2022-07-29T13:05:23.302Z,41.18
2022-07-29T13:07:55.562Z,40.24
2022-07-29T13:09:50.697Z,39.77
2022-07-29T13:11:54.498Z,39.38
2022-07-29T13:14:06.535Z,39.33
2022-07-29T13:16:09.793Z,39.09
2022-07-29T13:18:32.215Z,39.40
2022-07-29T13:20:35.251Z,39.78
2022-07-29T13:22:37.591Z,40.47
2022-07-29T13:24:57.008Z,41.19
2022-07-29T13:27:00.484Z,41.07
2022-07-29T13:29:02.894Z,41.63
2022-07-29T13:31:06.179Z,41.87
2022-07-29T13:33:08.926Z,40.86
2022-07-29T13:35:11.287Z,40.42
2022-07-29T13:37:13.675Z,39.99
2022-07-29T13:39:16.401Z,40.16
2022-07-29T13:41:18.735Z,38.94
2022-07-29T13:43:21.772Z,38.99
2022-07-29T13:45:24.385Z,38.84
2022-07-29T13:47:32.702Z,38.57
2022-07-29T13:49:35.762Z,38.32
2022-07-29T13:51:39.113Z,38.08
2022-07-29T13:53:41.430Z,38.17
2022-07-29T13:55:43.800Z,37.60
2022-07-29T13:57:46.700Z,37.45
2022-07-29T13:59:53.730Z,37.79
2022-07-29T14:01:56.955Z,37.22
2022-07-29T14:03:59.769Z,37.50
2022-07-29T14:06:03.100Z,37.36
2022-07-29T14:08:05.464Z,36.96
2022-07-29T14:10:08.717Z,36.61
2022-07-29T14:12:18.945Z,37.04
2022-07-29T14:14:22.164Z,36.69
2022-07-29T14:16:24.858Z,36.40
2022-07-29T14:18:27.280Z,36.71
2022-07-29T14:20:30.914Z,36.69
2022-07-29T14:22:37.813Z,36.64
2022-07-29T14:24:44.221Z,36.57
2022-07-29T14:26:46.798Z,36.38
2022-07-29T14:28:50.949Z,36.17
2022-07-29T14:30:53.340Z,36.24
2022-07-29T14:32:55.791Z,36.13
2022-07-29T14:34:58.509Z,36.08
2022-07-29T14:37:00.961Z,36.28
2022-07-29T14:39:03.660Z,36.78
2022-07-29T14:41:07.112Z,36.36
2022-07-29T14:43:09.507Z,36.78
2022-07-29T14:45:11.973Z,36.66
2022-07-29T14:47:14.577Z,36.36
2022-07-29T14:49:17.005Z,36.29
2022-07-29T14:51:19.515Z,36.31
2022-07-29T14:53:22.480Z,36.13
2022-07-29T14:55:25.297Z,35.93
2022-07-29T14:57:27.860Z,35.89
2022-07-29T14:59:30.850Z,35.67
2022-07-29T15:01:33.344Z,35.78
2022-07-29T15:03:35.860Z,35.88
2022-07-29T15:05:39.351Z,36.02
2022-07-29T15:07:41.737Z,36.03
2022-07-29T15:09:49.338Z,36.11
2022-07-29T15:11:52.931Z,36.24
2022-07-29T15:13:55.361Z,36.09
2022-07-29T15:16:00.214Z,36.11
2022-07-29T15:18:03.381Z,36.14
2022-07-29T15:20:06.691Z,36.14
2022-07-29T15:22:09.119Z,36.18
2022-07-29T15:24:11.792Z,35.80
2022-07-29T15:26:14.170Z,35.24
2022-07-29T15:28:16.569Z,35.33
2022-07-29T15:30:32.509Z,35.45
2022-07-29T15:32:36.259Z,35.23
2022-07-29T15:34:39.378Z,35.28
2022-07-29T15:36:51.907Z,35.62
2022-07-29T15:38:55.975Z,35.28
2022-07-29T15:40:58.336Z,35.21
2022-07-29T15:43:06.769Z,35.04
2022-07-29T15:45:10.003Z,34.94
2022-07-29T15:47:12.368Z,34.98
2022-07-29T15:49:15.105Z,35.04
2022-07-29T15:51:17.501Z,34.95
2022-07-29T15:53:19.924Z,34.78
2022-07-29T15:55:22.652Z,34.71
2022-07-29T15:57:25.520Z,34.74
2022-07-29T15:59:28.038Z,34.80
2022-07-29T16:01:30.840Z,34.83
2022-07-29T16:03:33.581Z,34.70
2022-07-29T16:05:36.035Z,34.54
2022-07-29T16:07:39.980Z,34.51
2022-07-29T16:09:44.858Z,34.53
2022-07-29T16:11:53.959Z,34.45
2022-07-29T16:13:56.348Z,34.23
2022-07-29T16:16:02.167Z,34.11
2022-07-29T16:18:05.772Z,34.02
2022-07-29T16:20:08.738Z,33.99
2022-07-29T16:22:13.741Z,34.02
2022-07-29T16:24:16.193Z,34.11
2022-07-29T16:26:19.729Z,34.09
2022-07-29T16:28:22.489Z,34.01
2022-07-29T16:30:25.050Z,33.95
2022-07-29T16:32:27.651Z,33.90
2022-07-29T16:34:30.303Z,33.88
2022-07-29T16:36:32.983Z,33.67
2022-07-29T16:38:36.402Z,33.55
2022-07-29T16:40:49.802Z,33.78
2022-07-29T16:42:54.766Z,33.61
2022-07-29T16:44:57.116Z,33.92
2022-07-29T16:47:00.479Z,33.95
2022-07-29T16:49:04.441Z,33.92
2022-07-29T16:51:07.824Z,33.67
2022-07-29T16:53:10.995Z,33.75
2022-07-29T16:55:13.457Z,33.72
2022-07-29T16:57:16.226Z,33.60
2022-07-29T16:59:18.849Z,33.32
2022-07-29T17:01:21.326Z,33.47
2022-07-29T17:03:23.704Z,33.41
2022-07-29T17:05:27.786Z,33.16
2022-07-29T17:07:30.115Z,33.22
2022-07-29T17:09:32.694Z,33.38
2022-07-29T17:11:52.780Z,33.52
2022-07-29T17:13:58.610Z,33.55
2022-07-29T17:16:01.315Z,33.49
2022-07-29T17:18:12.727Z,33.37
2022-07-29T17:20:17.586Z,33.21
2022-07-29T17:22:20.305Z,33.03
2022-07-29T17:24:22.976Z,33.11
2022-07-29T17:26:30.529Z,33.08
2022-07-29T17:28:32.994Z,33.10
2022-07-29T17:30:35.709Z,32.92
2022-07-29T17:32:40.686Z,32.92
2022-07-29T17:34:43.449Z,32.83
2022-07-29T17:36:46.194Z,32.91
2022-07-29T17:38:48.632Z,32.83
2022-07-29T17:40:50.944Z,32.81
2022-07-29T17:42:53.585Z,32.63
2022-07-29T17:44:55.880Z,32.56
2022-07-29T17:46:58.652Z,32.63
2022-07-29T17:49:01.590Z,32.41
2022-07-29T17:51:04.269Z,32.59
2022-07-29T17:53:09.569Z,32.66
2022-07-29T17:55:18.982Z,32.56
2022-07-29T17:57:21.398Z,32.62
2022-07-29T17:59:24.031Z,32.47
2022-07-29T18:01:26.704Z,32.37
2022-07-29T18:03:30.444Z,32.42
2022-07-29T18:05:33.436Z,32.44
2022-07-29T18:07:35.748Z,32.37
2022-07-29T18:09:38.588Z,32.37
2022-07-29T18:11:40.938Z,32.30
2022-07-29T18:13:46.970Z,32.19
2022-07-29T18:15:50.036Z,32.10
2022-07-29T18:17:57.352Z,32.07
2022-07-29T18:20:00.363Z,31.96
2022-07-29T18:22:05.327Z,31.95
2022-07-29T18:24:08.418Z,31.86
2022-07-29T18:26:10.904Z,31.83
2022-07-29T18:28:13.670Z,31.74
2022-07-29T18:30:16.561Z,31.55
2022-07-29T18:32:19.501Z,31.52
2022-07-29T18:34:32.142Z,31.57
2022-07-29T18:36:34.588Z,31.50
2022-07-29T18:38:36.938Z,31.53
2022-07-29T18:40:42.046Z,31.38
2022-07-29T18:42:44.390Z,31.66
2022-07-29T18:44:49.042Z,31.41
2022-07-29T18:46:52.519Z,31.38
2022-07-29T18:48:57.327Z,31.42
2022-07-29T18:50:59.892Z,31.50
2022-07-29T18:53:04.360Z,31.61
2022-07-29T18:55:07.824Z,31.59
2022-07-29T18:57:55.051Z,31.62
2022-07-29T18:59:34.596Z,32.05
2022-07-29T19:01:38.087Z,32.12
2022-07-29T19:03:40.542Z,32.17
2022-07-29T19:05:43.326Z,32.00
2022-07-29T19:07:45.657Z,31.90
2022-07-29T19:09:49.307Z,31.70
2022-07-29T19:11:55.980Z,31.92
2022-07-29T19:13:59.145Z,31.79
2022-07-29T19:16:01.587Z,31.71
2022-07-29T19:18:04.711Z,31.55
2022-07-29T19:20:07.999Z,31.45
2022-07-29T19:22:10.353Z,31.60
2022-07-29T19:24:15.552Z,31.35
2022-07-29T19:26:20.628Z,31.40
2022-07-29T19:28:23.305Z,30.94
2022-07-29T19:30:25.964Z,31.01
2022-07-29T19:32:28.344Z,31.07
2022-07-29T19:34:30.871Z,30.95
2022-07-29T19:36:33.808Z,30.90
2022-07-29T19:38:39.495Z,30.75
2022-07-29T19:40:41.875Z,30.83
2022-07-29T19:42:44.966Z,30.52
2022-07-29T19:44:47.342Z,30.82
2022-07-29T19:46:49.759Z,30.69
2022-07-29T19:48:53.607Z,30.59
2022-07-29T19:50:55.992Z,30.59
2022-07-29T19:52:59.240Z,30.32
2022-07-29T19:55:07.753Z,30.28
2022-07-29T19:57:10.400Z,30.12
2022-07-29T19:59:13.014Z,29.95
2022-07-29T20:01:17.127Z,29.89
2022-07-29T20:03:19.745Z,30.00
2022-07-29T20:05:22.175Z,29.88
2022-07-29T20:07:30.617Z,29.77
2022-07-29T20:09:33.923Z,29.79
2022-07-29T20:11:37.656Z,29.84
2022-07-29T20:13:40.186Z,29.85
2022-07-29T20:15:42.893Z,29.84
2022-07-29T20:17:45.428Z,29.74
2022-07-29T20:19:49.921Z,29.77
2022-07-29T20:21:52.918Z,29.52
2022-07-29T20:23:56.857Z,29.46
2022-07-29T20:25:59.276Z,29.50
2022-07-29T20:28:01.901Z,29.41
2022-07-29T20:30:05.307Z,29.51
2022-07-29T20:32:08.969Z,29.35
2022-07-29T20:34:11.769Z,29.31
2022-07-29T20:36:14.492Z,29.14
2022-07-29T20:38:18.496Z,29.29
2022-07-29T20:40:21.243Z,29.14
2022-07-29T20:42:23.793Z,28.95
2022-07-29T20:44:26.136Z,28.94
2022-07-29T20:46:28.931Z,28.93
2022-07-29T20:48:31.372Z,29.14
2022-07-29T20:50:33.750Z,29.07
2022-07-29T20:52:36.624Z,28.88
2022-07-29T20:54:39.012Z,28.79
2022-07-29T20:56:41.673Z,28.86
2022-07-29T20:58:44.395Z,28.93
2022-07-29T21:00:47.018Z,29.06
2022-07-29T21:02:49.438Z,29.01
2022-07-29T21:04:52.165Z,28.92
2022-07-29T21:06:54.534Z,28.89
2022-07-29T21:08:58.048Z,28.75
2022-07-29T21:11:01.091Z,28.88
2022-07-29T21:13:03.649Z,28.47
2022-07-29T21:15:06.693Z,28.28
2022-07-29T21:17:10.401Z,28.11
2022-07-29T21:19:12.779Z,28.32
2022-07-29T21:21:16.646Z,28.12
2022-07-29T21:23:19.271Z,27.79
2022-07-29T21:25:22.910Z,27.82
2022-07-29T21:27:43.970Z,27.83
2022-07-29T21:29:46.759Z,27.94
2022-07-29T21:31:49.073Z,28.03
2022-07-29T21:33:51.386Z,27.88
2022-07-29T21:38:18.352Z,27.77
2022-07-29T21:40:20.981Z,27.58
2022-07-29T21:42:23.665Z,27.74
2022-07-29T21:44:26.944Z,27.73
2022-07-29T21:46:29.761Z,27.72
2022-07-29T21:48:32.495Z,27.55
2022-07-29T21:50:35.690Z,27.55
2022-07-29T21:52:38.982Z,27.48
2022-07-29T21:54:42.774Z,27.45
2022-07-29T21:56:45.819Z,27.30
2022-07-29T21:58:53.670Z,27.30
2022-07-29T22:00:56.521Z,27.15
2022-07-29T22:02:59.446Z,27.21
2022-07-29T22:05:01.764Z,27.23
2022-07-29T22:07:04.445Z,27.24
